createdAt,value
2022-12-18T00:00:19.396Z,99736.20
2022-12-18T00:03:27.619Z,99742.20
2022-12-18T00:06:38.628Z,99745.80
2022-12-18T00:09:47.969Z,99754.80
2022-12-18T00:12:56.373Z,99753.40
2022-12-18T00:16:11.803Z,99755.40
2022-12-18T00:19:20.275Z,99764.20
2022-12-18T00:22:28.300Z,99773.00
2022-12-18T00:25:39.239Z,99781.20
2022-12-18T00:28:48.900Z,99783.60
2022-12-18T00:31:56.665Z,99789.80
2022-12-18T00:35:05.050Z,99791.20
2022-12-18T00:38:12.659Z,99797.80
2022-12-18T00:41:35.800Z,99790.20
2022-12-18T00:44:44.294Z,99795.40
2022-12-18T00:47:53.315Z,99798.60
2022-12-18T00:51:01.237Z,99790.00
2022-12-18T00:54:09.498Z,99799.40
2022-12-18T00:57:17.404Z,99813.60
2022-12-18T01:00:26.184Z,99811.40
2022-12-18T01:03:34.016Z,99812.80
2022-12-18T01:06:42.270Z,99816.40
2022-12-18T01:09:50.193Z,99822.40
2022-12-18T01:12:58.568Z,99827.00
2022-12-18T01:16:06.876Z,99829.20
2022-12-18T01:19:16.162Z,99834.40
2022-12-18T01:22:25.513Z,99830.20
2022-12-18T01:25:33.393Z,99832.00
2022-12-18T01:28:42.369Z,99833.60
2022-12-18T01:31:50.305Z,99837.60
2022-12-18T01:34:58.304Z,99839.80
2022-12-18T01:38:06.391Z,99840.00
2022-12-18T01:41:16.128Z,99835.20
2022-12-18T01:45:05.943Z,99834.00
2022-12-18T01:48:14.136Z,99842.40
2022-12-18T01:51:23.442Z,99839.80
2022-12-18T01:54:34.726Z,99846.40
2022-12-18T01:57:44.094Z,99852.40
2022-12-18T02:00:52.458Z,99848.00
2022-12-18T02:04:22.999Z,99853.00
2022-12-18T02:07:45.249Z,99858.60
2022-12-18T02:11:06.503Z,99860.00
2022-12-18T02:14:31.084Z,99860.20
2022-12-18T02:17:47.255Z,99868.80
2022-12-18T02:21:11.182Z,99875.60
2022-12-18T02:24:37.205Z,99884.00
2022-12-18T02:27:49.485Z,99883.80
2022-12-18T02:31:03.132Z,99880.80
2022-12-18T02:34:14.725Z,99890.80
2022-12-18T02:37:26.303Z,99893.20
2022-12-18T02:40:35.133Z,99901.20
2022-12-18T02:43:43.856Z,99909.60
2022-12-18T02:46:56.159Z,99901.00
2022-12-18T02:50:18.727Z,99897.20
2022-12-18T02:53:36.453Z,99903.40
2022-12-18T02:56:54.393Z,99905.60
2022-12-18T03:00:10.900Z,99922.60
2022-12-18T03:03:28.509Z,99924.40
2022-12-18T03:06:42.577Z,99923.80
2022-12-18T03:09:56.044Z,99923.80
2022-12-18T03:13:09.788Z,99920.60
2022-12-18T03:16:25.399Z,99927.60
2022-12-18T03:19:36.860Z,99929.00
2022-12-18T03:22:54.000Z,99929.80
2022-12-18T03:26:10.363Z,99932.80
2022-12-18T03:29:27.624Z,99938.40
2022-12-18T03:32:43.165Z,99942.00
2022-12-18T03:35:52.122Z,99943.60
2022-12-18T03:39:04.244Z,99948.80
2022-12-18T03:42:23.925Z,99954.40
2022-12-18T03:45:37.137Z,99952.40
2022-12-18T03:48:55.772Z,99964.20
2022-12-18T03:52:10.582Z,99962.60
2022-12-18T03:55:19.905Z,99958.80
2022-12-18T03:58:30.975Z,99967.00
2022-12-18T04:01:43.769Z,99974.80
2022-12-18T04:04:57.643Z,99980.00
2022-12-18T04:08:06.733Z,99982.20
2022-12-18T04:11:14.697Z,99988.60
2022-12-18T04:14:22.667Z,99981.60
2022-12-18T04:17:30.572Z,99986.40
2022-12-18T04:20:38.923Z,99986.80
2022-12-18T04:23:46.834Z,99986.80
2022-12-18T04:26:54.897Z,99993.20
2022-12-18T04:30:02.574Z,99992.80
2022-12-18T04:33:17.683Z,99997.40
2022-12-18T04:36:28.452Z,99994.20
2022-12-18T04:39:37.378Z,100001.20
2022-12-18T04:42:46.301Z,100006.20
2022-12-18T04:45:55.386Z,100004.00
2022-12-18T04:49:03.302Z,100011.60
2022-12-18T04:52:11.274Z,100015.60
2022-12-18T04:55:19.342Z,100017.00
2022-12-18T04:58:27.175Z,100025.40
2022-12-18T05:01:37.892Z,100029.80
2022-12-18T05:04:46.921Z,100030.00
2022-12-18T05:07:54.757Z,100032.00
2022-12-18T05:11:07.875Z,100028.40
2022-12-18T05:14:15.757Z,100032.60
2022-12-18T05:17:23.862Z,100040.60
2022-12-18T05:20:32.680Z,100043.00
2022-12-18T05:23:44.965Z,100048.20
2022-12-18T05:26:52.815Z,100050.60
2022-12-18T05:30:01.000Z,100048.40
2022-12-18T05:33:08.788Z,100043.60
2022-12-18T05:36:17.536Z,100050.60
2022-12-18T05:39:25.303Z,100051.80
2022-12-18T05:42:33.345Z,100066.40
2022-12-18T05:45:44.642Z,100073.00
2022-12-18T05:48:53.385Z,100071.40
2022-12-18T05:52:02.029Z,100075.60
2022-12-18T05:55:11.621Z,100081.20
2022-12-18T05:58:19.914Z,100079.00
2022-12-18T06:01:30.504Z,100084.80
2022-12-18T06:04:38.798Z,100085.00
2022-12-18T06:07:46.955Z,100083.00
2022-12-18T06:10:57.065Z,100084.40
2022-12-18T06:14:06.379Z,100088.00
2022-12-18T06:17:14.120Z,100091.00
2022-12-18T06:20:22.403Z,100092.80
2022-12-18T06:23:30.644Z,100092.40
2022-12-18T06:26:41.081Z,100087.40
2022-12-18T06:29:49.315Z,100098.20
2022-12-18T06:32:57.909Z,100112.60
2022-12-18T06:36:09.744Z,100117.80
2022-12-18T06:39:17.881Z,100119.00
2022-12-18T06:42:28.904Z,100122.20
2022-12-18T06:45:36.896Z,100124.00
2022-12-18T06:48:44.875Z,100128.20
2022-12-18T06:51:53.160Z,100135.40
2022-12-18T06:55:01.475Z,100142.80
2022-12-18T06:58:09.654Z,100154.40
2022-12-18T07:01:19.996Z,100160.40
2022-12-18T07:04:32.299Z,100163.00
2022-12-18T07:07:41.254Z,100167.80
2022-12-18T07:10:57.438Z,100171.00
2022-12-18T07:14:05.323Z,100174.40
2022-12-18T07:17:13.564Z,100185.40
2022-12-18T07:20:22.916Z,100189.80
2022-12-18T07:23:30.767Z,100193.40
2022-12-18T07:26:38.552Z,100199.60
2022-12-18T07:29:46.811Z,100203.40
2022-12-18T07:32:54.450Z,100206.40
2022-12-18T07:36:05.621Z,100219.00
2022-12-18T07:39:14.657Z,100225.60
2022-12-18T07:42:34.901Z,100229.60
2022-12-18T07:45:44.537Z,100231.80
2022-12-18T07:48:52.889Z,100235.80
2022-12-18T07:52:02.792Z,100241.60
2022-12-18T07:55:13.027Z,100241.00
2022-12-18T07:58:21.172Z,100253.20
2022-12-18T08:01:29.558Z,100249.20
2022-12-18T08:04:37.757Z,100256.00
2022-12-18T08:07:45.998Z,100261.60
2022-12-18T08:10:54.033Z,100259.00
2022-12-18T08:14:02.056Z,100258.20
2022-12-18T08:17:09.859Z,100271.60
2022-12-18T08:20:19.443Z,100272.80
2022-12-18T08:23:28.955Z,100272.40
2022-12-18T08:26:37.460Z,100273.00
2022-12-18T08:29:46.302Z,100277.00
2022-12-18T08:32:58.321Z,100278.40
2022-12-18T08:36:08.706Z,100279.60
2022-12-18T08:39:16.794Z,100284.80
2022-12-18T08:42:42.340Z,100286.60
2022-12-18T08:45:50.468Z,100289.00
2022-12-18T08:48:59.318Z,100290.00
2022-12-18T08:52:07.613Z,100291.40
2022-12-18T08:55:16.300Z,100292.60
2022-12-18T08:58:25.235Z,100295.80
2022-12-18T09:01:33.562Z,100306.20
2022-12-18T09:04:45.001Z,100301.20
2022-12-18T09:07:55.044Z,100303.40
2022-12-18T09:11:03.297Z,100305.40
2022-12-18T09:14:12.478Z,100301.20
2022-12-18T09:17:20.905Z,100303.00
2022-12-18T09:20:30.990Z,100304.00
2022-12-18T09:23:39.863Z,100305.20
2022-12-18T09:26:48.047Z,100310.40
2022-12-18T09:29:56.933Z,100304.60
2022-12-18T09:33:05.848Z,100306.20
2022-12-18T09:36:18.907Z,100308.00
2022-12-18T09:39:27.552Z,100301.20
2022-12-18T09:42:35.709Z,100303.60
2022-12-18T09:45:50.498Z,100298.20
2022-12-18T09:49:05.626Z,100298.20
2022-12-18T09:52:23.995Z,100293.00
2022-12-18T09:55:39.481Z,100302.20
2022-12-18T09:58:57.553Z,100303.00
2022-12-18T10:02:20.157Z,100301.20
2022-12-18T10:05:43.598Z,100300.00
2022-12-18T10:09:02.776Z,100304.60
2022-12-18T10:12:22.343Z,100308.80
2022-12-18T10:15:40.763Z,100309.20
2022-12-18T10:19:20.496Z,100306.60
2022-12-18T10:22:53.320Z,100302.80
2022-12-18T10:26:07.962Z,100297.80
2022-12-18T10:29:20.902Z,100309.20
2022-12-18T10:32:31.908Z,100306.60
2022-12-18T10:35:46.525Z,100307.00
2022-12-18T10:38:55.086Z,100309.40
2022-12-18T10:42:21.467Z,100313.60
2022-12-18T10:45:29.255Z,100307.60
2022-12-18T10:48:43.081Z,100309.60
2022-12-18T10:51:51.763Z,100301.60
2022-12-18T10:55:04.561Z,100298.00
2022-12-18T10:58:32.410Z,100298.80
2022-12-18T11:01:57.986Z,100298.20
2022-12-18T11:05:24.686Z,100294.20
2022-12-18T11:08:34.296Z,100283.40
2022-12-18T11:11:43.773Z,100290.40
2022-12-18T11:15:01.514Z,100280.80
2022-12-18T11:18:23.535Z,100285.40
2022-12-18T11:21:31.667Z,100287.80
2022-12-18T11:24:41.521Z,100285.00
2022-12-18T11:27:57.267Z,100287.40
2022-12-18T11:31:26.822Z,100289.00
2022-12-18T11:34:36.801Z,100280.80
2022-12-18T11:37:45.657Z,100280.40
2022-12-18T11:41:01.914Z,100271.00
2022-12-18T11:44:17.172Z,100262.80
2022-12-18T11:47:36.780Z,100263.80
2022-12-18T11:50:53.946Z,100262.60
2022-12-18T11:54:02.568Z,100258.40
2022-12-18T11:57:22.354Z,100255.20
2022-12-18T12:00:31.406Z,100257.80
2022-12-18T12:04:14.540Z,100256.60
2022-12-18T12:07:35.935Z,100260.20
2022-12-18T12:10:59.710Z,100254.00
2022-12-18T12:14:50.156Z,100259.20
2022-12-18T12:18:11.756Z,100264.00
2022-12-18T12:21:31.679Z,100265.00
2022-12-18T12:24:49.306Z,100262.20
2022-12-18T12:28:23.234Z,100262.40
2022-12-18T12:31:54.840Z,100248.00
2022-12-18T12:35:25.074Z,100254.80
2022-12-18T12:38:49.851Z,100254.00
2022-12-18T12:42:22.206Z,100255.40
2022-12-18T12:45:41.355Z,100260.60
2022-12-18T12:48:55.110Z,100268.60
2022-12-18T12:52:10.068Z,100276.00
2022-12-18T12:55:24.930Z,100272.80
2022-12-18T12:58:45.283Z,100275.80
2022-12-18T13:02:06.561Z,100279.60
2022-12-18T13:05:26.715Z,100288.80
2022-12-18T13:08:54.053Z,100286.20
2022-12-18T13:12:30.471Z,100285.20
2022-12-18T13:15:49.613Z,100288.80
2022-12-18T13:19:00.390Z,100293.00
2022-12-18T13:22:22.719Z,100290.20
2022-12-18T13:25:38.608Z,100298.00
2022-12-18T13:29:03.127Z,100298.00
2022-12-18T13:32:25.882Z,100300.60
2022-12-18T13:35:53.887Z,100293.40
2022-12-18T13:39:39.872Z,100290.80
2022-12-18T13:43:06.387Z,100295.40
2022-12-18T13:46:47.597Z,100306.00
2022-12-18T13:50:01.809Z,100302.20
2022-12-18T13:53:20.238Z,100304.80
2022-12-18T13:56:32.966Z,100309.40
2022-12-18T13:59:43.905Z,100309.20
2022-12-18T14:02:53.013Z,100311.00
2022-12-18T14:06:08.024Z,100316.20
2022-12-18T14:09:22.352Z,100313.60
2022-12-18T14:12:51.942Z,100314.40
2022-12-18T14:16:03.916Z,100310.20
2022-12-18T14:19:20.378Z,100314.60
2022-12-18T14:22:31.458Z,100319.80
2022-12-18T14:25:39.503Z,100319.00
2022-12-18T14:28:50.472Z,100316.00
2022-12-18T14:32:18.852Z,100335.40
2022-12-18T14:35:27.460Z,100341.80
2022-12-18T14:38:37.843Z,100351.20
2022-12-18T14:41:46.731Z,100352.80
2022-12-18T14:45:13.563Z,100362.80
2022-12-18T14:48:32.856Z,100364.60
2022-12-18T14:51:42.011Z,100361.40
2022-12-18T14:54:52.147Z,100364.00
2022-12-18T14:57:59.829Z,100377.20
2022-12-18T15:01:09.263Z,100373.40
2022-12-18T15:04:36.284Z,100365.60
2022-12-18T15:07:49.375Z,100372.60
2022-12-18T15:10:57.907Z,100380.40
2022-12-18T15:14:33.958Z,100394.40
2022-12-18T15:17:42.177Z,100394.40
2022-12-18T15:20:54.786Z,100403.00
2022-12-18T15:24:17.534Z,100408.40
2022-12-18T15:27:34.587Z,100415.40
2022-12-18T15:30:43.097Z,100423.80
2022-12-18T15:34:15.046Z,100427.40
2022-12-18T15:37:23.100Z,100440.20
2022-12-18T15:40:31.206Z,100444.40
2022-12-18T15:43:43.041Z,100440.60
2022-12-18T15:46:51.650Z,100444.40
2022-12-18T15:50:00.892Z,100442.00
2022-12-18T15:53:10.800Z,100441.60
2022-12-18T15:56:38.004Z,100437.20
2022-12-18T15:59:47.176Z,100444.00
2022-12-18T16:02:55.213Z,100442.60
2022-12-18T16:06:04.181Z,100447.00
2022-12-18T16:09:12.270Z,100448.00
2022-12-18T16:12:25.663Z,100445.00
2022-12-18T16:15:33.469Z,100452.00
2022-12-18T16:18:41.261Z,100465.20
2022-12-18T16:21:52.750Z,100469.40
2022-12-18T16:25:01.881Z,100469.00
2022-12-18T16:28:10.008Z,100471.40
2022-12-18T16:31:17.946Z,100480.40
2022-12-18T16:34:29.464Z,100478.80
2022-12-18T16:37:38.010Z,100474.60
2022-12-18T16:41:00.343Z,100490.60
2022-12-18T16:44:08.882Z,100483.60
2022-12-18T16:47:16.659Z,100486.40
2022-12-18T16:50:24.895Z,100486.20
2022-12-18T16:53:36.696Z,100485.40
2022-12-18T16:56:45.621Z,100479.80
2022-12-18T16:59:54.439Z,100467.00
2022-12-18T17:03:02.791Z,100473.80
2022-12-18T17:06:12.088Z,100470.80
2022-12-18T17:09:23.127Z,100467.00
2022-12-18T17:12:31.369Z,100467.00
2022-12-18T17:15:41.243Z,100459.00
2022-12-18T17:25:28.273Z,100457.60
2022-12-18T17:28:36.397Z,100462.60
2022-12-18T17:31:44.637Z,100464.40
2022-12-18T17:34:52.710Z,100474.20
2022-12-18T17:38:01.581Z,100481.20
2022-12-18T17:41:12.716Z,100479.20
2022-12-18T17:44:21.629Z,100481.60
2022-12-18T17:47:29.626Z,100484.20
2022-12-18T17:50:39.559Z,100481.20
2022-12-18T17:53:48.133Z,100476.20
2022-12-18T17:56:56.435Z,100472.60
2022-12-18T18:00:05.424Z,100478.80
2022-12-18T18:03:13.805Z,100481.20
2022-12-18T18:06:22.596Z,100481.00
2022-12-18T18:09:30.592Z,100483.00
2022-12-18T18:12:57.641Z,100483.20
2022-12-18T18:16:05.782Z,100480.00
2022-12-18T18:19:17.387Z,100476.00
2022-12-18T18:22:25.181Z,100475.80
2022-12-18T18:25:37.146Z,100478.00
2022-12-18T18:28:46.491Z,100482.40
2022-12-18T18:31:54.821Z,100498.40
2022-12-18T18:35:03.283Z,100497.40
2022-12-18T18:38:11.323Z,100506.80
2022-12-18T18:41:19.903Z,100500.60
2022-12-18T18:44:30.612Z,100499.40
2022-12-18T18:47:38.555Z,100501.20
2022-12-18T18:50:46.649Z,100501.40
2022-12-18T18:53:56.249Z,100504.80
2022-12-18T18:57:19.961Z,100499.80
2022-12-18T19:00:29.046Z,100498.60
2022-12-18T19:03:38.827Z,100504.40
2022-12-18T19:06:49.551Z,100508.20
2022-12-18T19:09:57.519Z,100520.00
2022-12-18T19:13:22.998Z,100519.40
2022-12-18T19:16:32.313Z,100531.00
2022-12-18T19:19:40.740Z,100526.00
2022-12-18T19:22:55.908Z,100524.40
2022-12-18T19:29:37.049Z,100531.80
2022-12-18T19:32:46.746Z,100533.00
2022-12-18T19:35:54.856Z,100540.00
2022-12-18T19:39:09.286Z,100541.40
2022-12-18T19:42:21.395Z,100545.20
2022-12-18T19:45:33.807Z,100538.40
2022-12-18T19:48:42.795Z,100544.40
2022-12-18T19:51:51.055Z,100548.40
2022-12-18T19:54:59.117Z,100548.20
2022-12-18T19:58:07.150Z,100542.20
2022-12-18T20:01:20.392Z,100546.60
2022-12-18T20:04:28.670Z,100552.20
2022-12-18T20:07:36.551Z,100555.60
2022-12-18T20:10:49.179Z,100557.00
2022-12-18T20:13:57.442Z,100561.40
2022-12-18T20:17:05.409Z,100564.80
2022-12-18T20:20:14.737Z,100574.20
2022-12-18T20:23:23.463Z,100571.20
2022-12-18T20:26:31.900Z,100572.40
2022-12-18T20:29:39.889Z,100577.80
2022-12-18T20:32:48.211Z,100580.20
2022-12-18T20:35:56.437Z,100576.80
2022-12-18T20:39:05.355Z,100569.20
2022-12-18T20:42:14.484Z,100568.60
2022-12-18T20:45:22.547Z,100571.40
2022-12-18T20:48:30.697Z,100575.20
2022-12-18T20:51:39.056Z,100580.60
2022-12-18T20:54:47.232Z,100577.60
2022-12-18T20:57:54.902Z,100592.40
2022-12-18T21:01:11.606Z,100596.40
2022-12-18T21:04:19.875Z,100596.80
2022-12-18T21:07:28.442Z,100591.40
2022-12-18T21:10:36.274Z,100592.40
2022-12-18T21:13:45.310Z,100592.20
2022-12-18T21:17:02.214Z,100591.00
2022-12-18T21:20:17.496Z,100587.00
2022-12-18T21:23:26.092Z,100577.00
2022-12-18T21:26:34.141Z,100584.20
2022-12-18T21:29:43.605Z,100582.20
2022-12-18T21:32:51.589Z,100576.60
2022-12-18T21:36:00.152Z,100572.60
2022-12-18T21:39:08.267Z,100567.00
2022-12-18T21:42:33.909Z,100565.00
2022-12-18T21:45:42.435Z,100574.40
2022-12-18T21:48:50.238Z,100568.40
2022-12-18T21:52:01.267Z,100569.20
2022-12-18T21:55:10.689Z,100578.60
2022-12-18T21:58:19.477Z,100577.40
2022-12-18T22:01:27.185Z,100569.60
2022-12-18T22:04:47.302Z,100565.60
2022-12-18T22:07:55.474Z,100562.60
2022-12-18T22:11:03.793Z,100566.60
2022-12-18T22:14:14.852Z,100571.80
2022-12-18T22:17:22.622Z,100562.20
2022-12-18T22:20:30.901Z,100561.80
2022-12-18T22:23:38.856Z,100568.40
2022-12-18T22:26:56.700Z,100572.20
2022-12-18T22:30:15.089Z,100574.00
2022-12-18T22:33:23.247Z,100578.00
2022-12-18T22:36:35.635Z,100588.20
2022-12-18T22:39:43.832Z,100586.80
2022-12-18T22:42:52.658Z,100585.40
2022-12-18T22:46:07.055Z,100576.80
2022-12-18T22:49:18.300Z,100582.80
2022-12-18T22:52:26.307Z,100584.60
2022-12-18T22:55:37.036Z,100583.20
2022-12-18T22:58:48.333Z,100586.80
2022-12-18T23:01:59.085Z,100585.60
2022-12-18T23:05:08.143Z,100586.00
2022-12-18T23:08:16.337Z,100584.60
2022-12-18T23:11:25.033Z,100577.80
2022-12-18T23:14:33.498Z,100584.20
2022-12-18T23:17:41.889Z,100586.80
2022-12-18T23:20:50.481Z,100594.00
2022-12-18T23:24:00.180Z,100586.60
2022-12-18T23:27:11.544Z,100587.40
2022-12-18T23:30:20.375Z,100583.80
2022-12-18T23:33:28.380Z,100591.60
2022-12-18T23:36:45.685Z,100591.20
2022-12-18T23:39:54.875Z,100580.60
2022-12-18T23:43:03.243Z,100580.00
2022-12-18T23:46:19.192Z,100580.60
2022-12-18T23:49:27.355Z,100574.00
2022-12-18T23:52:35.448Z,100575.20
2022-12-18T23:55:47.307Z,100585.80
2022-12-18T23:58:56.227Z,100577.00
